sensor_id;sensor_type;location;lat;lon;timestamp;P1;durP1;ratioP1;P2;durP2;ratioP2
50733;SDS011;36701;51.798;19.474;2022-12-05T00:01:47;35.03;;;15.35;;
50733;SDS011;36701;51.798;19.474;2022-12-05T00:04:13;52.45;;;16.65;;
50733;SDS011;36701;51.798;19.474;2022-12-05T00:06:40;37.17;;;14.80;;
50733;SDS011;36701;51.798;19.474;2022-12-05T00:09:10;36.95;;;14.35;;
50733;SDS011;36701;51.798;19.474;2022-12-05T00:11:39;35.00;;;15.07;;
50733;SDS011;36701;51.798;19.474;2022-12-05T00:14:08;34.53;;;14.73;;
50733;SDS011;36701;51.798;19.474;2022-12-05T00:16:37;36.25;;;14.73;;
50733;SDS011;36701;51.798;19.474;2022-12-05T00:19:05;23.17;;;12.30;;
50733;SDS011;36701;51.798;19.474;2022-12-05T00:21:39;23.35;;;10.40;;
50733;SDS011;36701;51.798;19.474;2022-12-05T00:24:06;29.98;;;13.80;;
50733;SDS011;36701;51.798;19.474;2022-12-05T00:26:36;28.23;;;14.90;;
50733;SDS011;36701;51.798;19.474;2022-12-05T00:29:02;24.60;;;12.77;;
50733;SDS011;36701;51.798;19.474;2022-12-05T00:31:29;24.92;;;14.13;;
50733;SDS011;36701;51.798;19.474;2022-12-05T00:33:58;26.10;;;12.95;;
50733;SDS011;36701;51.798;19.474;2022-12-05T00:36:27;30.52;;;14.38;;
50733;SDS011;36701;51.798;19.474;2022-12-05T00:38:57;34.80;;;16.00;;
50733;SDS011;36701;51.798;19.474;2022-12-05T00:41:25;30.45;;;15.27;;
50733;SDS011;36701;51.798;19.474;2022-12-05T00:43:53;31.08;;;14.80;;
50733;SDS011;36701;51.798;19.474;2022-12-05T00:46:21;27.65;;;13.70;;
50733;SDS011;36701;51.798;19.474;2022-12-05T00:48:50;38.00;;;17.75;;
50733;SDS011;36701;51.798;19.474;2022-12-05T00:51:19;29.83;;;14.80;;
50733;SDS011;36701;51.798;19.474;2022-12-05T00:53:48;31.62;;;14.23;;
50733;SDS011;36701;51.798;19.474;2022-12-05T00:56:19;30.33;;;14.63;;
50733;SDS011;36701;51.798;19.474;2022-12-05T00:58:47;25.00;;;10.13;;
50733;SDS011;36701;51.798;19.474;2022-12-05T03:02:33;27.33;;;13.27;;
50733;SDS011;36701;51.798;19.474;2022-12-05T03:05:04;27.15;;;12.82;;
50733;SDS011;36701;51.798;19.474;2022-12-05T03:07:43;26.87;;;13.73;;
50733;SDS011;36701;51.798;19.474;2022-12-05T03:10:12;34.22;;;14.45;;
50733;SDS011;36701;51.798;19.474;2022-12-05T03:12:41;23.92;;;11.38;;
50733;SDS011;36701;51.798;19.474;2022-12-05T03:15:27;30.75;;;13.43;;
50733;SDS011;36701;51.798;19.474;2022-12-05T03:18:05;44.25;;;19.33;;
50733;SDS011;36701;51.798;19.474;2022-12-05T03:23:25;35.95;;;15.07;;
50733;SDS011;36701;51.798;19.474;2022-12-05T03:26:08;40.85;;;16.37;;
50733;SDS011;36701;51.798;19.474;2022-12-05T03:31:45;33.30;;;14.52;;
50733;SDS011;36701;51.798;19.474;2022-12-05T03:34:17;29.83;;;12.70;;
50733;SDS011;36701;51.798;19.474;2022-12-05T03:36:53;36.60;;;16.12;;
50733;SDS011;36701;51.798;19.474;2022-12-05T03:39:26;29.87;;;17.30;;
50733;SDS011;36701;51.798;19.474;2022-12-05T03:42:15;31.92;;;14.00;;
50733;SDS011;36701;51.798;19.474;2022-12-05T03:45:10;30.20;;;14.48;;
50733;SDS011;36701;51.798;19.474;2022-12-05T03:47:46;18.70;;;9.43;;
50733;SDS011;36701;51.798;19.474;2022-12-05T03:50:26;32.35;;;15.30;;
50733;SDS011;36701;51.798;19.474;2022-12-05T03:53:08;37.33;;;16.05;;
50733;SDS011;36701;51.798;19.474;2022-12-05T03:55:40;38.88;;;17.23;;
50733;SDS011;36701;51.798;19.474;2022-12-05T03:58:11;33.75;;;14.32;;
50733;SDS011;36701;51.798;19.474;2022-12-05T04:00:46;36.38;;;16.95;;
50733;SDS011;36701;51.798;19.474;2022-12-05T04:03:23;32.17;;;16.62;;
50733;SDS011;36701;51.798;19.474;2022-12-05T04:06:08;33.45;;;16.15;;
50733;SDS011;36701;51.798;19.474;2022-12-05T04:11:27;32.33;;;14.00;;
50733;SDS011;36701;51.798;19.474;2022-12-05T04:14:11;34.63;;;12.45;;
50733;SDS011;36701;51.798;19.474;2022-12-05T04:16:46;49.75;;;17.37;;
50733;SDS011;36701;51.798;19.474;2022-12-05T04:19:32;33.90;;;17.17;;
50733;SDS011;36701;51.798;19.474;2022-12-05T04:22:22;36.58;;;18.12;;
50733;SDS011;36701;51.798;19.474;2022-12-05T04:24:50;35.47;;;15.82;;
50733;SDS011;36701;51.798;19.474;2022-12-05T04:30:57;30.23;;;13.35;;
50733;SDS011;36701;51.798;19.474;2022-12-05T04:33:45;29.73;;;12.60;;
50733;SDS011;36701;51.798;19.474;2022-12-05T04:38:54;39.10;;;16.83;;
50733;SDS011;36701;51.798;19.474;2022-12-05T04:41:27;30.45;;;13.13;;
50733;SDS011;36701;51.798;19.474;2022-12-05T04:44:00;20.40;;;8.80;;
50733;SDS011;36701;51.798;19.474;2022-12-05T04:46:32;36.13;;;14.52;;
50733;SDS011;36701;51.798;19.474;2022-12-05T04:49:00;29.85;;;13.45;;
50733;SDS011;36701;51.798;19.474;2022-12-05T04:51:33;31.17;;;12.30;;
50733;SDS011;36701;51.798;19.474;2022-12-05T04:54:04;27.17;;;12.13;;
50733;SDS011;36701;51.798;19.474;2022-12-05T04:56:39;37.40;;;15.18;;
50733;SDS011;36701;51.798;19.474;2022-12-05T04:59:09;48.70;;;20.45;;
50733;SDS011;36701;51.798;19.474;2022-12-05T05:01:37;45.85;;;17.95;;
50733;SDS011;36701;51.798;19.474;2022-12-05T05:04:15;36.88;;;14.52;;
50733;SDS011;36701;51.798;19.474;2022-12-05T05:06:46;38.97;;;15.82;;
50733;SDS011;36701;51.798;19.474;2022-12-05T05:09:13;35.38;;;15.20;;
50733;SDS011;36701;51.798;19.474;2022-12-05T05:11:39;63.92;;;17.10;;
50733;SDS011;36701;51.798;19.474;2022-12-05T05:14:05;41.45;;;18.08;;
50733;SDS011;36701;51.798;19.474;2022-12-05T05:16:34;34.45;;;16.05;;
50733;SDS011;36701;51.798;19.474;2022-12-05T05:19:03;39.45;;;16.20;;
50733;SDS011;36701;51.798;19.474;2022-12-05T05:21:32;51.17;;;17.30;;
50733;SDS011;36701;51.798;19.474;2022-12-05T05:24:00;46.50;;;15.32;;
50733;SDS011;36701;51.798;19.474;2022-12-05T05:26:28;31.12;;;14.55;;
50733;SDS011;36701;51.798;19.474;2022-12-05T05:28:56;33.47;;;14.55;;
50733;SDS011;36701;51.798;19.474;2022-12-05T05:31:23;45.45;;;16.17;;
50733;SDS011;36701;51.798;19.474;2022-12-05T05:33:51;37.15;;;13.85;;
50733;SDS011;36701;51.798;19.474;2022-12-05T05:36:19;38.45;;;16.77;;
50733;SDS011;36701;51.798;19.474;2022-12-05T05:38:48;35.45;;;16.17;;
50733;SDS011;36701;51.798;19.474;2022-12-05T05:41:16;32.65;;;13.77;;
50733;SDS011;36701;51.798;19.474;2022-12-05T05:43:45;41.60;;;14.77;;
50733;SDS011;36701;51.798;19.474;2022-12-05T05:46:12;41.95;;;18.15;;
50733;SDS011;36701;51.798;19.474;2022-12-05T05:48:40;33.08;;;14.75;;
50733;SDS011;36701;51.798;19.474;2022-12-05T05:51:07;37.10;;;15.48;;
50733;SDS011;36701;51.798;19.474;2022-12-05T05:53:36;37.00;;;16.35;;
50733;SDS011;36701;51.798;19.474;2022-12-05T05:56:04;41.65;;;16.10;;
50733;SDS011;36701;51.798;19.474;2022-12-05T05:58:32;35.65;;;16.20;;
50733;SDS011;36701;51.798;19.474;2022-12-05T06:01:03;36.03;;;16.33;;
50733;SDS011;36701;51.798;19.474;2022-12-05T06:03:31;38.33;;;16.55;;
50733;SDS011;36701;51.798;19.474;2022-12-05T06:05:59;38.42;;;14.30;;
50733;SDS011;36701;51.798;19.474;2022-12-05T06:08:29;33.38;;;13.55;;
50733;SDS011;36701;51.798;19.474;2022-12-05T06:11:03;40.25;;;14.63;;
50733;SDS011;36701;51.798;19.474;2022-12-05T06:13:31;39.83;;;16.90;;
50733;SDS011;36701;51.798;19.474;2022-12-05T06:15:58;39.15;;;13.73;;
50733;SDS011;36701;51.798;19.474;2022-12-05T06:18:24;26.58;;;9.65;;
50733;SDS011;36701;51.798;19.474;2022-12-05T06:20:54;27.65;;;12.95;;
50733;SDS011;36701;51.798;19.474;2022-12-05T06:23:22;36.25;;;14.60;;
50733;SDS011;36701;51.798;19.474;2022-12-05T06:25:51;36.78;;;15.10;;
50733;SDS011;36701;51.798;19.474;2022-12-05T06:28:19;35.00;;;14.30;;
50733;SDS011;36701;51.798;19.474;2022-12-05T06:30:46;40.95;;;16.17;;
50733;SDS011;36701;51.798;19.474;2022-12-05T06:33:12;44.42;;;15.40;;
50733;SDS011;36701;51.798;19.474;2022-12-05T06:35:40;34.20;;;15.05;;
50733;SDS011;36701;51.798;19.474;2022-12-05T06:38:06;35.30;;;14.65;;
50733;SDS011;36701;51.798;19.474;2022-12-05T06:40:34;34.92;;;14.18;;
50733;SDS011;36701;51.798;19.474;2022-12-05T06:43:04;46.10;;;15.30;;
50733;SDS011;36701;51.798;19.474;2022-12-05T06:45:30;32.17;;;13.55;;
50733;SDS011;36701;51.798;19.474;2022-12-05T06:47:57;40.17;;;16.17;;
50733;SDS011;36701;51.798;19.474;2022-12-05T06:50:23;32.28;;;13.75;;
50733;SDS011;36701;51.798;19.474;2022-12-05T06:52:50;40.70;;;16.48;;
50733;SDS011;36701;51.798;19.474;2022-12-05T06:55:16;31.48;;;12.63;;
50733;SDS011;36701;51.798;19.474;2022-12-05T06:57:42;35.30;;;14.52;;
50733;SDS011;36701;51.798;19.474;2022-12-05T07:00:09;24.80;;;12.20;;
50733;SDS011;36701;51.798;19.474;2022-12-05T07:02:55;42.05;;;14.30;;
50733;SDS011;36701;51.798;19.474;2022-12-05T07:05:21;44.60;;;16.77;;
50733;SDS011;36701;51.798;19.474;2022-12-05T07:07:48;32.88;;;14.13;;
50733;SDS011;36701;51.798;19.474;2022-12-05T07:10:14;23.87;;;10.45;;
50733;SDS011;36701;51.798;19.474;2022-12-05T07:12:41;35.97;;;14.30;;
50733;SDS011;36701;51.798;19.474;2022-12-05T07:15:07;30.45;;;13.13;;
50733;SDS011;36701;51.798;19.474;2022-12-05T07:17:35;34.33;;;14.70;;
50733;SDS011;36701;51.798;19.474;2022-12-05T07:20:05;38.35;;;15.48;;
50733;SDS011;36701;51.798;19.474;2022-12-05T07:22:34;40.80;;;13.10;;
50733;SDS011;36701;51.798;19.474;2022-12-05T07:25:02;46.25;;;18.45;;
50733;SDS011;36701;51.798;19.474;2022-12-05T07:27:29;27.67;;;12.52;;
50733;SDS011;36701;51.798;19.474;2022-12-05T07:29:55;18.85;;;8.93;;
50733;SDS011;36701;51.798;19.474;2022-12-05T07:32:22;31.00;;;12.95;;
50733;SDS011;36701;51.798;19.474;2022-12-05T07:34:49;23.40;;;9.65;;
50733;SDS011;36701;51.798;19.474;2022-12-05T07:37:15;30.42;;;12.32;;
50733;SDS011;36701;51.798;19.474;2022-12-05T07:39:41;31.42;;;13.32;;
50733;SDS011;36701;51.798;19.474;2022-12-05T07:42:08;34.22;;;12.70;;
50733;SDS011;36701;51.798;19.474;2022-12-05T07:44:34;36.50;;;14.35;;
50733;SDS011;36701;51.798;19.474;2022-12-05T07:47:01;26.70;;;12.45;;
50733;SDS011;36701;51.798;19.474;2022-12-05T07:49:27;24.83;;;9.68;;
50733;SDS011;36701;51.798;19.474;2022-12-05T07:51:54;28.87;;;11.63;;
50733;SDS011;36701;51.798;19.474;2022-12-05T07:54:20;32.75;;;13.80;;
50733;SDS011;36701;51.798;19.474;2022-12-05T07:56:47;22.58;;;8.90;;
50733;SDS011;36701;51.798;19.474;2022-12-05T07:59:13;25.62;;;10.90;;
50733;SDS011;36701;51.798;19.474;2022-12-05T08:01:39;34.67;;;12.98;;
50733;SDS011;36701;51.798;19.474;2022-12-05T08:04:06;28.40;;;14.27;;
50733;SDS011;36701;51.798;19.474;2022-12-05T08:06:33;40.38;;;13.38;;
50733;SDS011;36701;51.798;19.474;2022-12-05T08:08:59;30.48;;;13.27;;
50733;SDS011;36701;51.798;19.474;2022-12-05T08:11:27;32.13;;;13.02;;
50733;SDS011;36701;51.798;19.474;2022-12-05T08:13:55;26.83;;;13.18;;
50733;SDS011;36701;51.798;19.474;2022-12-05T08:16:24;35.28;;;13.38;;
50733;SDS011;36701;51.798;19.474;2022-12-05T08:18:56;27.35;;;12.00;;
50733;SDS011;36701;51.798;19.474;2022-12-05T08:21:24;31.80;;;16.23;;
50733;SDS011;36701;51.798;19.474;2022-12-05T08:23:51;29.12;;;12.82;;
50733;SDS011;36701;51.798;19.474;2022-12-05T08:26:19;29.90;;;12.50;;
50733;SDS011;36701;51.798;19.474;2022-12-05T08:28:52;27.65;;;13.52;;
50733;SDS011;36701;51.798;19.474;2022-12-05T08:31:21;36.28;;;14.70;;
50733;SDS011;36701;51.798;19.474;2022-12-05T08:33:49;35.05;;;14.95;;
50733;SDS011;36701;51.798;19.474;2022-12-05T08:36:17;29.75;;;14.70;;
50733;SDS011;36701;51.798;19.474;2022-12-05T08:38:45;31.77;;;14.15;;
50733;SDS011;36701;51.798;19.474;2022-12-05T08:41:12;30.50;;;14.18;;
50733;SDS011;36701;51.798;19.474;2022-12-05T08:43:40;28.05;;;11.68;;
50733;SDS011;36701;51.798;19.474;2022-12-05T08:46:08;29.12;;;14.52;;
50733;SDS011;36701;51.798;19.474;2022-12-05T08:48:36;29.33;;;11.55;;
50733;SDS011;36701;51.798;19.474;2022-12-05T08:51:06;25.67;;;12.98;;
50733;SDS011;36701;51.798;19.474;2022-12-05T08:53:40;36.83;;;15.88;;
50733;SDS011;36701;51.798;19.474;2022-12-05T08:56:08;33.80;;;12.88;;
50733;SDS011;36701;51.798;19.474;2022-12-05T08:58:47;30.00;;;10.88;;
50733;SDS011;36701;51.798;19.474;2022-12-05T09:01:15;25.85;;;11.45;;
50733;SDS011;36701;51.798;19.474;2022-12-05T09:03:52;31.05;;;14.35;;
50733;SDS011;36701;51.798;19.474;2022-12-05T09:06:22;34.42;;;13.02;;
50733;SDS011;36701;51.798;19.474;2022-12-05T09:09:09;40.08;;;15.40;;
50733;SDS011;36701;51.798;19.474;2022-12-05T09:11:49;40.47;;;16.45;;
50733;SDS011;36701;51.798;19.474;2022-12-05T09:14:17;34.10;;;15.15;;
50733;SDS011;36701;51.798;19.474;2022-12-05T09:16:51;38.30;;;15.00;;
50733;SDS011;36701;51.798;19.474;2022-12-05T09:19:28;33.35;;;13.85;;
50733;SDS011;36701;51.798;19.474;2022-12-05T09:21:58;38.13;;;15.23;;
50733;SDS011;36701;51.798;19.474;2022-12-05T09:24:25;32.60;;;15.55;;
50733;SDS011;36701;51.798;19.474;2022-12-05T09:27:04;41.25;;;14.30;;
50733;SDS011;36701;51.798;19.474;2022-12-05T09:29:38;32.15;;;12.85;;
50733;SDS011;36701;51.798;19.474;2022-12-05T09:32:05;33.58;;;13.55;;
50733;SDS011;36701;51.798;19.474;2022-12-05T09:34:47;27.17;;;12.25;;
50733;SDS011;36701;51.798;19.474;2022-12-05T09:37:23;35.22;;;14.35;;
50733;SDS011;36701;51.798;19.474;2022-12-05T09:39:50;41.78;;;17.55;;
50733;SDS011;36701;51.798;19.474;2022-12-05T09:53:03;37.28;;;14.43;;
50733;SDS011;36701;51.798;19.474;2022-12-05T09:56:12;37.78;;;17.10;;
50733;SDS011;36701;51.798;19.474;2022-12-05T09:58:54;29.77;;;13.80;;
50733;SDS011;36701;51.798;19.474;2022-12-05T10:04:54;32.40;;;14.98;;
50733;SDS011;36701;51.798;19.474;2022-12-05T10:15:35;32.88;;;14.45;;
50733;SDS011;36701;51.798;19.474;2022-12-05T10:23:43;39.85;;;15.82;;
50733;SDS011;36701;51.798;19.474;2022-12-05T10:26:34;37.30;;;16.83;;
50733;SDS011;36701;51.798;19.474;2022-12-05T10:35:17;34.63;;;15.63;;
50733;SDS011;36701;51.798;19.474;2022-12-05T10:37:58;40.35;;;17.25;;
50733;SDS011;36701;51.798;19.474;2022-12-05T10:40:32;37.10;;;15.65;;
50733;SDS011;36701;51.798;19.474;2022-12-05T10:43:02;42.62;;;16.60;;
50733;SDS011;36701;51.798;19.474;2022-12-05T10:45:31;40.90;;;17.87;;
50733;SDS011;36701;51.798;19.474;2022-12-05T10:47:57;48.67;;;17.20;;
50733;SDS011;36701;51.798;19.474;2022-12-05T10:50:27;46.15;;;23.17;;
50733;SDS011;36701;51.798;19.474;2022-12-05T10:52:57;39.30;;;17.33;;
50733;SDS011;36701;51.798;19.474;2022-12-05T10:55:31;47.85;;;16.90;;
50733;SDS011;36701;51.798;19.474;2022-12-05T10:58:09;47.88;;;17.92;;
50733;SDS011;36701;51.798;19.474;2022-12-05T11:00:54;42.22;;;18.25;;
50733;SDS011;36701;51.798;19.474;2022-12-05T11:05:49;34.45;;;13.32;;
50733;SDS011;36701;51.798;19.474;2022-12-05T11:08:23;45.72;;;17.80;;
50733;SDS011;36701;51.798;19.474;2022-12-05T11:11:05;41.45;;;18.37;;
50733;SDS011;36701;51.798;19.474;2022-12-05T11:13:52;47.62;;;15.65;;
50733;SDS011;36701;51.798;19.474;2022-12-05T11:16:28;36.08;;;14.10;;
50733;SDS011;36701;51.798;19.474;2022-12-05T11:20:03;38.80;;;14.57;;
50733;SDS011;36701;51.798;19.474;2022-12-05T11:21:59;39.03;;;16.62;;
50733;SDS011;36701;51.798;19.474;2022-12-05T11:24:28;37.55;;;16.45;;
50733;SDS011;36701;51.798;19.474;2022-12-05T11:26:58;37.55;;;14.80;;
50733;SDS011;36701;51.798;19.474;2022-12-05T11:32:43;41.10;;;15.90;;
50733;SDS011;36701;51.798;19.474;2022-12-05T11:37:42;45.00;;;16.35;;
50733;SDS011;36701;51.798;19.474;2022-12-05T11:40:57;44.65;;;18.30;;
50733;SDS011;36701;51.798;19.474;2022-12-05T11:49:30;49.20;;;16.85;;
50733;SDS011;36701;51.798;19.474;2022-12-05T11:52:21;46.83;;;15.52;;
50733;SDS011;36701;51.798;19.474;2022-12-05T12:03:59;46.72;;;18.73;;
50733;SDS011;36701;51.798;19.474;2022-12-05T12:06:28;42.80;;;18.25;;
50733;SDS011;36701;51.798;19.474;2022-12-05T12:15:01;47.15;;;17.62;;
50733;SDS011;36701;51.798;19.474;2022-12-05T12:17:45;42.00;;;19.62;;
50733;SDS011;36701;51.798;19.474;2022-12-05T12:24:05;54.45;;;19.70;;
50733;SDS011;36701;51.798;19.474;2022-12-05T12:29:38;43.50;;;18.20;;
50733;SDS011;36701;51.798;19.474;2022-12-05T12:40:42;43.70;;;16.50;;
50733;SDS011;36701;51.798;19.474;2022-12-05T12:51:13;43.83;;;18.40;;
50733;SDS011;36701;51.798;19.474;2022-12-05T12:53:53;51.83;;;19.10;;
50733;SDS011;36701;51.798;19.474;2022-12-05T12:59:48;37.85;;;16.87;;
50733;SDS011;36701;51.798;19.474;2022-12-05T13:02:49;47.45;;;20.65;;
50733;SDS011;36701;51.798;19.474;2022-12-05T13:05:41;52.10;;;16.98;;
50733;SDS011;36701;51.798;19.474;2022-12-05T13:11:01;49.55;;;21.27;;
50733;SDS011;36701;51.798;19.474;2022-12-05T13:13:46;46.72;;;19.37;;
50733;SDS011;36701;51.798;19.474;2022-12-05T13:16:35;46.90;;;18.17;;
50733;SDS011;36701;51.798;19.474;2022-12-05T13:22:06;58.33;;;20.27;;
50733;SDS011;36701;51.798;19.474;2022-12-05T13:24:33;44.22;;;16.62;;
50733;SDS011;36701;51.798;19.474;2022-12-05T13:27:06;48.70;;;19.55;;
50733;SDS011;36701;51.798;19.474;2022-12-05T13:29:55;41.60;;;17.27;;
50733;SDS011;36701;51.798;19.474;2022-12-05T13:35:07;50.15;;;20.67;;
50733;SDS011;36701;51.798;19.474;2022-12-05T13:37:36;46.88;;;19.33;;
50733;SDS011;36701;51.798;19.474;2022-12-05T13:40:33;45.83;;;20.10;;
50733;SDS011;36701;51.798;19.474;2022-12-05T13:43:24;53.00;;;19.95;;
50733;SDS011;36701;51.798;19.474;2022-12-05T13:48:29;46.50;;;20.95;;
50733;SDS011;36701;51.798;19.474;2022-12-05T13:51:02;47.90;;;22.53;;
50733;SDS011;36701;51.798;19.474;2022-12-05T13:53:36;47.38;;;21.20;;
50733;SDS011;36701;51.798;19.474;2022-12-05T13:56:22;48.72;;;19.33;;
50733;SDS011;36701;51.798;19.474;2022-12-05T13:58:55;51.22;;;22.87;;
50733;SDS011;36701;51.798;19.474;2022-12-05T14:06:54;47.03;;;21.20;;
50733;SDS011;36701;51.798;19.474;2022-12-05T14:25:16;51.28;;;20.33;;
50733;SDS011;36701;51.798;19.474;2022-12-05T14:33:02;48.45;;;19.25;;
50733;SDS011;36701;51.798;19.474;2022-12-05T14:35:45;53.45;;;21.17;;
50733;SDS011;36701;51.798;19.474;2022-12-05T14:38:34;63.10;;;26.10;;
50733;SDS011;36701;51.798;19.474;2022-12-05T14:41:25;56.30;;;25.23;;
50733;SDS011;36701;51.798;19.474;2022-12-05T14:43:59;54.85;;;23.30;;
50733;SDS011;36701;51.798;19.474;2022-12-05T14:46:29;57.17;;;23.45;;
50733;SDS011;36701;51.798;19.474;2022-12-05T14:48:57;52.22;;;20.62;;
50733;SDS011;36701;51.798;19.474;2022-12-05T14:51:52;56.00;;;22.50;;
50733;SDS011;36701;51.798;19.474;2022-12-05T14:54:21;54.53;;;24.05;;
50733;SDS011;36701;51.798;19.474;2022-12-05T14:56:59;52.05;;;20.98;;
50733;SDS011;36701;51.798;19.474;2022-12-05T14:59:39;56.37;;;23.70;;
50733;SDS011;36701;51.798;19.474;2022-12-05T15:02:15;50.38;;;23.15;;
50733;SDS011;36701;51.798;19.474;2022-12-05T15:04:54;43.72;;;19.55;;
50733;SDS011;36701;51.798;19.474;2022-12-05T15:07:34;56.33;;;22.77;;
50733;SDS011;36701;51.798;19.474;2022-12-05T15:10:05;56.58;;;22.58;;
50733;SDS011;36701;51.798;19.474;2022-12-05T15:12:52;56.70;;;21.55;;
50733;SDS011;36701;51.798;19.474;2022-12-05T15:17:58;51.85;;;20.37;;
50733;SDS011;36701;51.798;19.474;2022-12-05T15:26:15;55.72;;;22.42;;
50733;SDS011;36701;51.798;19.474;2022-12-05T15:28:59;49.47;;;20.58;;
50733;SDS011;36701;51.798;19.474;2022-12-05T15:31:27;58.72;;;22.80;;
50733;SDS011;36701;51.798;19.474;2022-12-05T15:33:56;63.35;;;23.45;;
50733;SDS011;36701;51.798;19.474;2022-12-05T15:36:27;52.60;;;21.65;;
50733;SDS011;36701;51.798;19.474;2022-12-05T15:39:05;60.95;;;22.05;;
50733;SDS011;36701;51.798;19.474;2022-12-05T15:41:44;57.53;;;22.83;;
50733;SDS011;36701;51.798;19.474;2022-12-05T15:44:16;51.28;;;23.85;;
50733;SDS011;36701;51.798;19.474;2022-12-05T15:46:55;57.40;;;23.55;;
50733;SDS011;36701;51.798;19.474;2022-12-05T15:49:25;56.05;;;25.58;;
50733;SDS011;36701;51.798;19.474;2022-12-05T15:52:00;60.78;;;25.73;;
50733;SDS011;36701;51.798;19.474;2022-12-05T15:54:49;48.28;;;21.10;;
50733;SDS011;36701;51.798;19.474;2022-12-05T15:57:23;59.42;;;22.35;;
50733;SDS011;36701;51.798;19.474;2022-12-05T16:00:06;57.50;;;23.00;;
50733;SDS011;36701;51.798;19.474;2022-12-05T16:02:48;52.22;;;22.83;;
50733;SDS011;36701;51.798;19.474;2022-12-05T16:05:32;51.08;;;24.12;;
50733;SDS011;36701;51.798;19.474;2022-12-05T16:08:20;51.25;;;20.75;;
50733;SDS011;36701;51.798;19.474;2022-12-05T16:10:49;54.05;;;23.52;;
50733;SDS011;36701;51.798;19.474;2022-12-05T16:13:16;54.05;;;25.02;;
50733;SDS011;36701;51.798;19.474;2022-12-05T16:15:50;56.37;;;24.52;;
50733;SDS011;36701;51.798;19.474;2022-12-05T16:18:23;51.22;;;23.98;;
50733;SDS011;36701;51.798;19.474;2022-12-05T16:20:53;48.72;;;21.60;;
50733;SDS011;36701;51.798;19.474;2022-12-05T16:28:37;54.83;;;21.25;;
50733;SDS011;36701;51.798;19.474;2022-12-05T16:31:05;59.58;;;25.33;;
50733;SDS011;36701;51.798;19.474;2022-12-05T16:33:32;53.67;;;22.13;;
50733;SDS011;36701;51.798;19.474;2022-12-05T16:36:08;49.63;;;22.67;;
50733;SDS011;36701;51.798;19.474;2022-12-05T16:38:36;49.58;;;23.08;;
50733;SDS011;36701;51.798;19.474;2022-12-05T16:41:05;55.33;;;21.98;;
50733;SDS011;36701;51.798;19.474;2022-12-05T16:48:36;48.70;;;23.33;;
50733;SDS011;36701;51.798;19.474;2022-12-05T16:51:21;50.22;;;24.08;;
50733;SDS011;36701;51.798;19.474;2022-12-05T16:53:54;51.60;;;21.87;;
50733;SDS011;36701;51.798;19.474;2022-12-05T16:56:22;57.05;;;23.45;;
50733;SDS011;36701;51.798;19.474;2022-12-05T16:58:52;57.53;;;22.85;;
50733;SDS011;36701;51.798;19.474;2022-12-05T17:01:23;54.33;;;21.85;;
50733;SDS011;36701;51.798;19.474;2022-12-05T17:03:52;52.17;;;22.92;;
50733;SDS011;36701;51.798;19.474;2022-12-05T17:06:20;50.80;;;22.10;;
50733;SDS011;36701;51.798;19.474;2022-12-05T17:08:49;47.00;;;21.80;;
50733;SDS011;36701;51.798;19.474;2022-12-05T17:11:18;50.00;;;22.35;;
50733;SDS011;36701;51.798;19.474;2022-12-05T17:13:48;45.10;;;21.70;;
50733;SDS011;36701;51.798;19.474;2022-12-05T17:16:15;50.03;;;24.35;;
50733;SDS011;36701;51.798;19.474;2022-12-05T17:18:43;49.85;;;22.00;;
50733;SDS011;36701;51.798;19.474;2022-12-05T17:21:12;56.08;;;24.60;;
50733;SDS011;36701;51.798;19.474;2022-12-05T17:23:44;48.60;;;23.02;;
50733;SDS011;36701;51.798;19.474;2022-12-05T17:26:14;53.65;;;21.50;;
50733;SDS011;36701;51.798;19.474;2022-12-05T17:28:43;53.83;;;22.95;;
50733;SDS011;36701;51.798;19.474;2022-12-05T17:31:13;58.90;;;25.27;;
50733;SDS011;36701;51.798;19.474;2022-12-05T17:33:44;57.70;;;24.60;;
50733;SDS011;36701;51.798;19.474;2022-12-05T17:36:12;57.72;;;25.37;;
50733;SDS011;36701;51.798;19.474;2022-12-05T17:38:39;59.45;;;25.60;;
50733;SDS011;36701;51.798;19.474;2022-12-05T17:41:05;57.22;;;28.60;;
50733;SDS011;36701;51.798;19.474;2022-12-05T17:43:32;48.38;;;23.80;;
50733;SDS011;36701;51.798;19.474;2022-12-05T17:46:00;52.78;;;22.02;;
50733;SDS011;36701;51.798;19.474;2022-12-05T17:48:27;49.92;;;22.90;;
50733;SDS011;36701;51.798;19.474;2022-12-05T17:50:54;43.47;;;20.55;;
50733;SDS011;36701;51.798;19.474;2022-12-05T17:53:24;55.90;;;22.75;;
50733;SDS011;36701;51.798;19.474;2022-12-05T17:55:50;55.88;;;23.98;;
50733;SDS011;36701;51.798;19.474;2022-12-05T17:58:17;56.25;;;23.77;;
50733;SDS011;36701;51.798;19.474;2022-12-05T18:00:43;59.00;;;25.45;;
50733;SDS011;36701;51.798;19.474;2022-12-05T18:03:13;64.93;;;26.87;;
50733;SDS011;36701;51.798;19.474;2022-12-05T18:05:41;60.33;;;25.12;;
50733;SDS011;36701;51.798;19.474;2022-12-05T18:08:10;57.17;;;24.52;;
50733;SDS011;36701;51.798;19.474;2022-12-05T18:10:40;58.85;;;24.40;;
50733;SDS011;36701;51.798;19.474;2022-12-05T18:13:17;65.20;;;24.77;;
50733;SDS011;36701;51.798;19.474;2022-12-05T18:15:55;65.62;;;27.15;;
50733;SDS011;36701;51.798;19.474;2022-12-05T18:18:25;56.40;;;24.80;;
50733;SDS011;36701;51.798;19.474;2022-12-05T18:21:08;57.22;;;24.08;;
50733;SDS011;36701;51.798;19.474;2022-12-05T18:23:38;55.47;;;27.35;;
50733;SDS011;36701;51.798;19.474;2022-12-05T18:26:08;53.53;;;24.70;;
50733;SDS011;36701;51.798;19.474;2022-12-05T18:28:38;64.50;;;26.45;;
50733;SDS011;36701;51.798;19.474;2022-12-05T18:31:08;64.90;;;26.33;;
50733;SDS011;36701;51.798;19.474;2022-12-05T18:33:38;59.15;;;28.75;;
50733;SDS011;36701;51.798;19.474;2022-12-05T18:36:09;55.10;;;25.95;;
50733;SDS011;36701;51.798;19.474;2022-12-05T18:38:40;61.33;;;25.92;;
50733;SDS011;36701;51.798;19.474;2022-12-05T18:43:39;60.55;;;23.23;;
50733;SDS011;36701;51.798;19.474;2022-12-05T18:46:08;65.68;;;28.05;;
50733;SDS011;36701;51.798;19.474;2022-12-05T18:48:37;63.53;;;28.23;;
50733;SDS011;36701;51.798;19.474;2022-12-05T18:53:40;62.30;;;25.37;;
50733;SDS011;36701;51.798;19.474;2022-12-05T18:56:11;60.45;;;27.80;;
50733;SDS011;36701;51.798;19.474;2022-12-05T18:58:42;58.95;;;27.05;;
50733;SDS011;36701;51.798;19.474;2022-12-05T19:01:11;56.42;;;27.00;;
50733;SDS011;36701;51.798;19.474;2022-12-05T19:06:15;53.97;;;23.50;;
50733;SDS011;36701;51.798;19.474;2022-12-05T19:11:11;64.65;;;26.85;;
50733;SDS011;36701;51.798;19.474;2022-12-05T19:13:39;64.05;;;26.60;;
50733;SDS011;36701;51.798;19.474;2022-12-05T19:16:07;60.80;;;26.90;;
50733;SDS011;36701;51.798;19.474;2022-12-05T19:18:35;52.38;;;24.40;;
50733;SDS011;36701;51.798;19.474;2022-12-05T19:21:02;55.75;;;25.90;;
50733;SDS011;36701;51.798;19.474;2022-12-05T19:23:30;61.70;;;28.00;;
50733;SDS011;36701;51.798;19.474;2022-12-05T19:25:58;55.70;;;24.63;;
50733;SDS011;36701;51.798;19.474;2022-12-05T19:28:26;62.75;;;26.98;;
50733;SDS011;36701;51.798;19.474;2022-12-05T19:30:58;67.28;;;27.23;;